createdAt,value
2023-01-07T00:01:45.762Z,10.90
2023-01-07T00:04:16.856Z,10.83
2023-01-07T00:06:48.371Z,10.86
2023-01-07T00:09:18.107Z,10.84
2023-01-07T00:11:47.756Z,10.75
2023-01-07T00:14:17.341Z,10.83
2023-01-07T00:16:46.398Z,10.83
2023-01-07T00:19:17.165Z,10.85
2023-01-07T00:21:46.271Z,10.74
2023-01-07T00:24:18.145Z,10.77
2023-01-07T00:26:47.503Z,10.59
2023-01-07T00:29:18.080Z,10.62
2023-01-07T00:31:47.287Z,10.60
2023-01-07T00:34:17.097Z,10.75
2023-01-07T00:36:48.348Z,10.70
2023-01-07T00:39:22.468Z,10.66
2023-01-07T00:42:09.857Z,10.62
2023-01-07T00:44:39.139Z,10.62
2023-01-07T00:47:08.451Z,10.61
2023-01-07T00:49:37.627Z,10.46
2023-01-07T00:52:06.848Z,10.24
2023-01-07T00:54:36.346Z,10.48
2023-01-07T00:57:05.330Z,10.57
2023-01-07T00:59:35.068Z,10.57
2023-01-07T01:02:05.840Z,10.61
2023-01-07T01:04:37.476Z,10.55
2023-01-07T01:07:10.657Z,10.66
2023-01-07T01:09:41.109Z,10.54
2023-01-07T01:12:11.377Z,10.65
2023-01-07T01:14:41.709Z,10.55
2023-01-07T01:17:11.642Z,10.58
2023-01-07T01:19:41.455Z,10.39
2023-01-07T01:22:11.872Z,10.53
2023-01-07T01:24:42.142Z,10.37
2023-01-07T01:27:12.365Z,10.41
2023-01-07T01:29:42.583Z,10.52
2023-01-07T01:32:14.315Z,10.39
2023-01-07T01:34:46.111Z,10.11
2023-01-07T01:37:16.349Z,10.43
2023-01-07T01:39:45.971Z,10.45
2023-01-07T01:42:23.033Z,10.44
2023-01-07T01:45:01.932Z,10.61
2023-01-07T01:48:14.059Z,10.69
2023-01-07T01:50:50.014Z,10.25
2023-01-07T01:53:38.679Z,10.27
2023-01-07T01:56:17.892Z,10.24
2023-01-07T01:58:54.929Z,10.26
2023-01-07T02:01:25.499Z,9.76
2023-01-07T02:03:56.216Z,10.26
2023-01-07T02:06:34.365Z,10.35
2023-01-07T02:09:04.161Z,10.21
2023-01-07T02:11:44.133Z,10.37
2023-01-07T02:14:55.039Z,10.63
2023-01-07T02:17:50.688Z,10.61
2023-01-07T02:20:36.227Z,10.46
2023-01-07T02:23:33.154Z,10.41
2023-01-07T02:26:29.570Z,10.15
2023-01-07T02:29:05.507Z,10.07
2023-01-07T02:31:47.927Z,10.32
2023-01-07T02:34:31.008Z,10.31
2023-01-07T02:37:08.786Z,10.44
2023-01-07T02:39:56.996Z,10.62
2023-01-07T02:42:38.802Z,10.64
2023-01-07T02:45:40.201Z,10.52
2023-01-07T02:48:14.775Z,10.33
2023-01-07T02:50:44.285Z,10.50
2023-01-07T02:53:19.077Z,10.63
2023-01-07T02:56:00.094Z,10.60
2023-01-07T02:58:50.129Z,10.33
2023-01-07T03:01:48.583Z,10.61
2023-01-07T03:04:40.126Z,10.62
2023-01-07T03:07:37.605Z,10.84
2023-01-07T03:10:39.689Z,10.91
2023-01-07T03:13:26.417Z,10.98
2023-01-07T03:16:05.647Z,10.90
2023-01-07T03:18:45.072Z,10.91
2023-01-07T03:21:18.180Z,10.92
2023-01-07T03:23:56.923Z,11.03
2023-01-07T03:26:32.161Z,10.92
2023-01-07T03:29:04.584Z,10.81
2023-01-07T03:31:38.353Z,10.75
2023-01-07T03:34:14.179Z,10.79
2023-01-07T03:36:50.577Z,10.99
2023-01-07T03:39:22.116Z,10.98
2023-01-07T03:42:25.174Z,10.88
2023-01-07T03:44:54.860Z,11.05
2023-01-07T03:47:29.041Z,11.08
2023-01-07T03:49:58.713Z,11.10
2023-01-07T03:52:29.047Z,11.02
2023-01-07T03:54:58.980Z,11.23
2023-01-07T03:57:30.525Z,11.05
2023-01-07T04:00:03.119Z,11.18
2023-01-07T04:02:33.073Z,11.26
2023-01-07T04:05:02.545Z,11.27
2023-01-07T04:07:32.261Z,11.33
2023-01-07T04:10:02.434Z,11.41
2023-01-07T04:12:32.369Z,11.52
2023-01-07T04:15:02.100Z,11.45
2023-01-07T04:17:33.283Z,11.27
2023-01-07T04:20:03.186Z,11.58
2023-01-07T04:22:33.551Z,11.37
2023-01-07T04:25:03.677Z,11.61
2023-01-07T04:27:34.667Z,11.56
2023-01-07T04:30:05.630Z,11.73
2023-01-07T04:32:36.752Z,11.85
2023-01-07T04:35:07.267Z,11.73
2023-01-07T04:37:37.450Z,11.80
2023-01-07T04:40:07.925Z,11.91
2023-01-07T04:42:39.104Z,12.00
2023-01-07T04:45:11.073Z,12.12
2023-01-07T04:47:41.151Z,12.15
2023-01-07T04:50:11.394Z,12.19
2023-01-07T04:52:41.991Z,12.11
2023-01-07T04:55:12.652Z,12.12
2023-01-07T04:57:42.564Z,12.47
2023-01-07T05:00:15.012Z,12.60
2023-01-07T05:02:47.676Z,12.44
2023-01-07T05:05:18.761Z,12.27
2023-01-07T05:07:48.513Z,12.26
2023-01-07T05:10:22.086Z,12.33
2023-01-07T05:12:55.474Z,12.23
2023-01-07T05:15:27.011Z,12.12
2023-01-07T05:17:57.679Z,12.27
2023-01-07T05:20:28.538Z,12.56
2023-01-07T05:22:58.830Z,12.50
2023-01-07T05:25:29.013Z,12.34
2023-01-07T05:27:59.598Z,11.93
2023-01-07T05:30:31.342Z,12.32
2023-01-07T05:33:01.292Z,12.15
2023-01-07T05:35:31.448Z,12.07
2023-01-07T05:38:02.147Z,12.44
2023-01-07T05:40:32.596Z,12.38
2023-01-07T05:43:02.922Z,11.99
2023-01-07T05:45:32.684Z,12.35
2023-01-07T05:48:02.643Z,12.52
2023-01-07T05:50:32.575Z,12.86
2023-01-07T05:53:02.306Z,12.69
2023-01-07T05:55:32.270Z,12.81
2023-01-07T05:58:02.019Z,12.85
2023-01-07T06:00:31.931Z,12.91
2023-01-07T06:03:01.928Z,12.84
2023-01-07T06:05:32.311Z,12.72
2023-01-07T06:08:01.812Z,12.57
2023-01-07T06:10:31.849Z,12.58
2023-01-07T06:13:01.270Z,12.48
2023-01-07T06:15:31.469Z,12.80
2023-01-07T06:18:02.332Z,13.21
2023-01-07T06:20:35.829Z,13.22
2023-01-07T06:23:06.183Z,13.08
2023-01-07T06:25:35.991Z,13.45
2023-01-07T06:28:05.977Z,13.30
2023-01-07T06:30:35.198Z,13.52
2023-01-07T06:33:06.805Z,13.68
2023-01-07T06:35:36.279Z,13.75
2023-01-07T06:38:06.809Z,13.21
2023-01-07T06:40:36.983Z,13.59
2023-01-07T06:43:07.841Z,13.73
2023-01-07T06:45:37.855Z,13.51
2023-01-07T06:48:08.844Z,13.62
2023-01-07T06:50:38.603Z,13.45
2023-01-07T06:53:08.301Z,13.68
2023-01-07T06:55:38.093Z,14.11
2023-01-07T06:58:07.688Z,14.02
2023-01-07T07:00:37.085Z,14.19
2023-01-07T07:03:06.505Z,13.95
2023-01-07T07:05:36.642Z,14.22
2023-01-07T07:08:08.468Z,14.35
2023-01-07T07:10:37.726Z,14.22
2023-01-07T07:13:06.993Z,14.44
2023-01-07T07:15:36.169Z,14.15
2023-01-07T07:18:05.202Z,14.34
2023-01-07T07:20:34.891Z,14.24
2023-01-07T07:23:04.298Z,14.42
2023-01-07T07:25:36.383Z,14.28
2023-01-07T07:28:05.899Z,14.44
2023-01-07T07:30:47.234Z,14.37
2023-01-07T07:33:20.087Z,14.41
2023-01-07T07:35:49.691Z,14.22
2023-01-07T07:38:20.121Z,14.44
2023-01-07T07:40:49.733Z,14.64
2023-01-07T07:43:18.818Z,14.64
2023-01-07T07:45:48.311Z,14.73
2023-01-07T07:48:20.237Z,14.66
2023-01-07T07:51:00.007Z,15.05
2023-01-07T07:53:30.587Z,14.81
2023-01-07T07:56:00.439Z,14.88
2023-01-07T07:58:30.926Z,14.74
2023-01-07T08:01:00.031Z,14.78
2023-01-07T08:03:33.282Z,15.03
2023-01-07T08:06:04.776Z,15.04
2023-01-07T08:08:34.812Z,15.24
2023-01-07T08:11:04.918Z,15.48
2023-01-07T08:13:34.225Z,15.36
2023-01-07T08:16:03.439Z,15.25
2023-01-07T08:18:32.679Z,15.33
2023-01-07T08:21:02.129Z,15.28
2023-01-07T08:23:32.239Z,15.73
2023-01-07T08:26:04.255Z,15.67
2023-01-07T08:28:34.922Z,15.79
2023-01-07T08:31:05.647Z,15.85
2023-01-07T08:33:38.367Z,15.73
2023-01-07T08:36:22.000Z,15.98
2023-01-07T08:38:53.970Z,16.24
2023-01-07T08:41:24.351Z,16.34
2023-01-07T08:43:55.196Z,16.32
2023-01-07T08:46:24.482Z,16.54
2023-01-07T08:48:53.536Z,16.37
2023-01-07T08:51:22.933Z,16.19
2023-01-07T08:53:52.024Z,16.22
2023-01-07T08:56:22.120Z,16.23
2023-01-07T08:58:51.254Z,16.26
2023-01-07T09:01:24.854Z,16.24
2023-01-07T09:03:54.121Z,16.11
2023-01-07T09:06:24.461Z,16.15
2023-01-07T09:08:53.450Z,16.19
2023-01-07T09:11:22.744Z,16.02
2023-01-07T09:13:54.130Z,16.32
2023-01-07T09:16:23.484Z,16.09
2023-01-07T09:18:55.041Z,16.28
2023-01-07T09:21:24.245Z,16.15
2023-01-07T09:23:53.287Z,16.27
2023-01-07T09:26:22.222Z,16.14
2023-01-07T09:28:51.410Z,16.19
2023-01-07T09:31:20.768Z,16.27
2023-01-07T09:33:50.421Z,16.09
2023-01-07T09:36:19.390Z,16.10
2023-01-07T09:38:48.801Z,16.09
2023-01-07T09:41:35.102Z,16.05
2023-01-07T09:44:14.092Z,16.17
2023-01-07T09:46:45.110Z,15.94
2023-01-07T09:49:19.621Z,15.87
2023-01-07T09:52:00.208Z,15.86
2023-01-07T09:54:38.374Z,15.96
2023-01-07T09:57:08.451Z,15.63
2023-01-07T09:59:38.096Z,15.60
2023-01-07T10:02:25.788Z,15.49
2023-01-07T10:05:10.016Z,15.45
2023-01-07T10:07:47.393Z,15.35
2023-01-07T10:10:35.715Z,15.33
2023-01-07T10:13:20.417Z,15.27
2023-01-07T10:16:03.933Z,15.35
2023-01-07T10:19:00.092Z,15.26
2023-01-07T10:21:53.423Z,15.14
2023-01-07T10:24:40.887Z,15.03
2023-01-07T10:27:14.816Z,15.06
2023-01-07T10:29:57.861Z,15.19
2023-01-07T10:32:37.757Z,15.17
2023-01-07T10:35:15.966Z,14.75
2023-01-07T10:37:45.404Z,14.74
2023-01-07T10:40:26.611Z,14.45
2023-01-07T10:42:58.538Z,14.53
2023-01-07T10:46:14.795Z,14.17
2023-01-07T10:49:02.480Z,14.10
2023-01-07T10:51:58.868Z,14.44
2023-01-07T10:54:51.108Z,14.19
2023-01-07T10:57:27.565Z,14.41
2023-01-07T11:00:03.892Z,14.39
2023-01-07T11:02:33.320Z,14.23
2023-01-07T11:05:02.686Z,14.16
2023-01-07T11:07:52.804Z,14.09
2023-01-07T11:10:30.250Z,14.15
2023-01-07T11:13:13.946Z,13.81
2023-01-07T11:15:58.869Z,14.03
2023-01-07T11:18:52.874Z,13.99
2023-01-07T11:21:44.728Z,14.03
2023-01-07T11:24:26.156Z,13.92
2023-01-07T11:27:21.484Z,13.95
2023-01-07T11:30:20.244Z,14.06
2023-01-07T11:33:04.155Z,14.11
2023-01-07T11:35:33.868Z,13.95
2023-01-07T11:38:03.076Z,13.78
2023-01-07T11:40:34.342Z,13.87
2023-01-07T11:43:21.977Z,13.90
2023-01-07T11:46:20.128Z,13.71
2023-01-07T11:49:03.674Z,13.88
2023-01-07T11:51:41.862Z,13.82
2023-01-07T11:54:22.688Z,13.83
2023-01-07T11:56:54.841Z,13.72
2023-01-07T11:59:29.219Z,13.90
2023-01-07T12:02:00.705Z,13.41
2023-01-07T12:04:38.129Z,13.29
2023-01-07T12:07:16.663Z,13.39
2023-01-07T12:09:47.452Z,13.44
2023-01-07T12:12:40.494Z,13.72
2023-01-07T12:15:28.540Z,13.69
2023-01-07T12:18:30.381Z,13.91
2023-01-07T12:21:14.700Z,13.69
2023-01-07T12:24:04.927Z,13.48
2023-01-07T12:26:53.692Z,13.56
2023-01-07T12:29:41.295Z,13.31
2023-01-07T12:32:27.299Z,13.57
2023-01-07T12:35:26.935Z,13.58
2023-01-07T12:38:09.606Z,13.62
2023-01-07T12:40:44.869Z,13.61
2023-01-07T12:43:22.457Z,13.60
2023-01-07T12:46:02.580Z,13.64
2023-01-07T12:48:32.149Z,13.47
2023-01-07T12:51:06.151Z,13.57
2023-01-07T12:53:43.616Z,13.60
2023-01-07T12:56:39.172Z,13.74
2023-01-07T12:59:46.120Z,13.70
2023-01-07T13:02:40.813Z,13.55
2023-01-07T13:05:17.371Z,13.50
2023-01-07T13:08:28.912Z,13.58
2023-01-07T13:11:47.226Z,13.52
2023-01-07T13:14:30.645Z,13.52
2023-01-07T13:17:30.372Z,13.52
2023-01-07T13:20:00.424Z,13.35
2023-01-07T13:22:42.406Z,13.08
2023-01-07T13:25:40.088Z,13.14
2023-01-07T13:28:32.351Z,13.39
2023-01-07T13:31:01.799Z,13.27
2023-01-07T13:33:56.416Z,13.43
2023-01-07T13:36:52.212Z,13.41
2023-01-07T13:39:32.722Z,13.05
2023-01-07T13:42:17.093Z,13.13
2023-01-07T13:45:25.995Z,13.39
2023-01-07T13:47:59.826Z,13.21
2023-01-07T13:50:43.360Z,13.20
2023-01-07T13:53:18.374Z,13.17
2023-01-07T13:55:49.700Z,13.19
2023-01-07T13:58:34.315Z,13.29
2023-01-07T14:01:06.702Z,13.28
2023-01-07T14:03:42.731Z,13.17
2023-01-07T14:06:24.960Z,13.34
2023-01-07T14:09:09.380Z,13.13
2023-01-07T14:11:49.165Z,13.13
2023-01-07T14:14:53.416Z,13.17
2023-01-07T14:17:29.613Z,13.18
2023-01-07T14:20:23.218Z,13.08
2023-01-07T14:22:59.807Z,13.09
2023-01-07T14:26:14.784Z,13.16
2023-01-07T14:28:58.915Z,12.98
2023-01-07T14:31:31.115Z,13.17
2023-01-07T14:34:09.668Z,13.18
2023-01-07T14:37:03.313Z,13.22
2023-01-07T14:39:41.197Z,13.07
2023-01-07T14:42:22.538Z,13.10
2023-01-07T14:44:52.951Z,13.07
2023-01-07T14:47:46.743Z,13.20
2023-01-07T14:50:25.915Z,13.06
2023-01-07T14:53:39.547Z,13.14
2023-01-07T14:56:18.421Z,13.12
2023-01-07T14:59:16.614Z,13.10
2023-01-07T15:02:09.072Z,13.08
2023-01-07T15:05:03.701Z,13.01
2023-01-07T15:07:38.621Z,12.99
2023-01-07T15:10:41.743Z,13.08
2023-01-07T15:13:37.446Z,12.88
2023-01-07T15:16:12.700Z,12.99
2023-01-07T15:18:56.504Z,12.99
2023-01-07T15:21:41.108Z,13.01
2023-01-07T15:24:24.003Z,12.90
2023-01-07T15:27:51.817Z,12.88
2023-01-07T15:30:32.241Z,12.90
2023-01-07T15:33:32.838Z,12.97
2023-01-07T15:36:06.760Z,12.82
2023-01-07T15:38:51.539Z,12.88
2023-01-07T15:41:55.177Z,12.85
2023-01-07T15:44:29.441Z,12.64
2023-01-07T15:46:58.971Z,12.54
2023-01-07T15:49:30.913Z,12.43
2023-01-07T15:52:03.709Z,12.66
2023-01-07T15:54:39.348Z,12.79
2023-01-07T15:57:30.028Z,12.55
2023-01-07T16:00:01.220Z,12.56
2023-01-07T16:02:39.926Z,12.68
2023-01-07T16:05:11.093Z,12.40
2023-01-07T16:08:01.805Z,12.65
2023-01-07T16:10:34.838Z,12.61
2023-01-07T16:13:19.341Z,12.70
2023-01-07T16:15:54.665Z,12.70
2023-01-07T16:18:24.224Z,12.68
2023-01-07T16:21:02.606Z,12.53
2023-01-07T16:23:38.370Z,12.53
2023-01-07T16:26:17.688Z,12.59
2023-01-07T16:29:00.962Z,12.52
2023-01-07T16:31:32.509Z,12.66
2023-01-07T16:34:04.383Z,12.68
2023-01-07T16:36:38.150Z,12.61
2023-01-07T16:39:19.904Z,12.58
2023-01-07T16:41:50.565Z,12.55
2023-01-07T16:44:41.627Z,12.65
2023-01-07T16:47:19.759Z,12.67
2023-01-07T16:49:51.419Z,12.59
2023-01-07T16:52:23.028Z,12.52
2023-01-07T16:54:52.552Z,12.52
2023-01-07T16:57:43.674Z,12.64
2023-01-07T17:00:21.922Z,12.64
2023-01-07T17:03:01.000Z,12.56
2023-01-07T17:05:35.241Z,12.61
2023-01-07T17:08:08.488Z,12.67
2023-01-07T17:10:44.315Z,12.68
2023-01-07T17:13:16.807Z,12.58
2023-01-07T17:15:48.471Z,12.66
2023-01-07T17:18:18.393Z,12.55
2023-01-07T17:21:05.102Z,12.63
2023-01-07T17:23:42.478Z,12.63
2023-01-07T17:26:23.796Z,12.73
2023-01-07T17:29:03.200Z,12.64
2023-01-07T17:31:33.868Z,12.64
2023-01-07T17:34:04.644Z,12.61
2023-01-07T17:36:34.216Z,12.43
2023-01-07T17:39:07.651Z,12.62
2023-01-07T17:41:57.225Z,12.71
2023-01-07T17:44:26.620Z,12.49
2023-01-07T17:46:55.938Z,12.57
2023-01-07T17:49:25.567Z,12.53
2023-01-07T17:51:55.347Z,12.44
2023-01-07T17:54:27.392Z,12.67
2023-01-07T17:56:58.477Z,12.69
2023-01-07T17:59:31.264Z,12.55
2023-01-07T18:02:01.718Z,12.32
2023-01-07T18:04:32.024Z,12.53
2023-01-07T18:07:02.057Z,12.65
2023-01-07T18:09:30.941Z,12.67
2023-01-07T18:12:18.645Z,12.71
2023-01-07T18:14:48.122Z,12.51
2023-01-07T18:17:18.508Z,12.63
2023-01-07T18:19:51.049Z,12.33
2023-01-07T18:22:21.533Z,12.19
2023-01-07T18:24:51.580Z,12.25
2023-01-07T18:27:21.214Z,12.32
2023-01-07T18:29:50.463Z,12.17
2023-01-07T18:32:20.345Z,12.00
2023-01-07T18:34:49.399Z,12.36
2023-01-07T18:37:19.128Z,12.00
2023-01-07T18:39:48.562Z,11.88
2023-01-07T18:42:18.061Z,11.90
2023-01-07T18:44:47.099Z,12.00
2023-01-07T18:47:16.472Z,12.09
2023-01-07T18:49:45.658Z,12.25
2023-01-07T18:52:14.730Z,12.08
2023-01-07T18:54:44.384Z,11.99
2023-01-07T18:57:15.411Z,12.16
2023-01-07T18:59:44.743Z,11.90
2023-01-07T19:02:21.184Z,12.07
2023-01-07T19:04:50.774Z,12.13
2023-01-07T19:07:20.779Z,12.20
2023-01-07T19:09:50.273Z,12.12
2023-01-07T19:12:19.440Z,12.17
2023-01-07T19:14:48.293Z,12.26
2023-01-07T19:17:17.532Z,12.02
2023-01-07T19:19:48.763Z,12.10
2023-01-07T19:22:18.289Z,11.99
2023-01-07T19:24:47.283Z,12.12
2023-01-07T19:27:16.601Z,12.20
2023-01-07T19:29:45.591Z,12.14
2023-01-07T19:32:14.826Z,12.16
2023-01-07T19:34:44.280Z,12.15
2023-01-07T19:37:13.429Z,12.16
2023-01-07T19:39:42.908Z,12.03
2023-01-07T19:42:13.584Z,12.06
2023-01-07T19:44:43.066Z,11.97
2023-01-07T19:47:12.214Z,11.89
2023-01-07T19:49:41.381Z,11.82
2023-01-07T19:52:10.693Z,11.91
2023-01-07T19:54:40.061Z,11.90
2023-01-07T19:57:09.722Z,11.85
2023-01-07T19:59:38.940Z,11.82
2023-01-07T20:02:08.514Z,11.94
2023-01-07T20:04:37.832Z,11.87
2023-01-07T20:07:07.310Z,11.81
2023-01-07T20:09:36.636Z,11.73
2023-01-07T20:12:06.374Z,11.86
2023-01-07T20:14:35.813Z,11.69
2023-01-07T20:17:05.156Z,11.69
2023-01-07T20:19:34.501Z,11.70
2023-01-07T20:22:03.862Z,11.75
2023-01-07T20:24:33.865Z,11.81
2023-01-07T20:27:03.325Z,11.61
2023-01-07T20:29:32.577Z,11.68
2023-01-07T20:32:02.031Z,11.74
2023-01-07T20:34:31.353Z,11.67
2023-01-07T20:37:00.739Z,11.65
2023-01-07T20:39:29.853Z,11.56
2023-01-07T20:41:59.102Z,11.38
2023-01-07T20:44:28.433Z,11.39
2023-01-07T20:46:57.637Z,11.42
2023-01-07T20:49:26.683Z,11.52
2023-01-07T20:51:55.945Z,11.57
2023-01-07T20:54:25.218Z,11.46
2023-01-07T20:56:54.661Z,11.50
2023-01-07T20:59:24.393Z,11.55
2023-01-07T21:01:53.587Z,11.53
2023-01-07T21:04:22.879Z,11.40
2023-01-07T21:06:52.139Z,11.23
2023-01-07T21:09:21.197Z,11.41
2023-01-07T21:11:50.335Z,11.48
2023-01-07T21:14:19.836Z,11.48
2023-01-07T21:16:49.398Z,11.37
2023-01-07T21:19:18.516Z,11.32
2023-01-07T21:21:49.628Z,11.37
2023-01-07T21:24:18.999Z,11.31
2023-01-07T21:26:49.437Z,11.18
2023-01-07T21:29:18.525Z,11.24
2023-01-07T21:31:47.768Z,11.17
2023-01-07T21:34:16.858Z,11.03
2023-01-07T21:36:46.091Z,11.16
2023-01-07T21:39:15.543Z,11.27
2023-01-07T21:41:44.839Z,11.30
2023-01-07T21:44:14.486Z,11.24
2023-01-07T21:46:43.846Z,11.22
2023-01-07T21:49:12.686Z,11.23
2023-01-07T21:51:42.145Z,11.30
2023-01-07T21:54:11.375Z,11.25
2023-01-07T21:56:40.712Z,11.32
2023-01-07T21:59:10.937Z,11.14
2023-01-07T22:01:40.465Z,11.09
2023-01-07T22:04:09.721Z,11.07
2023-01-07T22:06:39.388Z,11.10
2023-01-07T22:09:12.956Z,11.02
2023-01-07T22:11:43.435Z,11.09
2023-01-07T22:14:18.877Z,11.19
2023-01-07T22:16:49.242Z,11.14
2023-01-07T22:19:18.745Z,11.04
2023-01-07T22:21:47.822Z,11.08
2023-01-07T22:24:16.986Z,11.17
2023-01-07T22:26:46.622Z,11.11
2023-01-07T22:29:16.271Z,11.23
2023-01-07T22:31:49.218Z,11.26
2023-01-07T22:34:18.459Z,11.22
2023-01-07T22:37:00.440Z,11.25
2023-01-07T22:39:58.871Z,11.30
2023-01-07T22:42:35.720Z,11.23
2023-01-07T22:45:12.309Z,11.15
2023-01-07T22:47:46.280Z,11.25
2023-01-07T22:50:16.325Z,11.06
2023-01-07T22:52:46.481Z,10.92
2023-01-07T22:55:15.974Z,11.11
2023-01-07T22:57:44.821Z,11.24
2023-01-07T23:00:40.901Z,11.41
2023-01-07T23:03:10.125Z,11.25
2023-01-07T23:05:41.019Z,11.22
2023-01-07T23:08:11.055Z,11.15
2023-01-07T23:10:41.563Z,11.15
2023-01-07T23:13:12.097Z,10.93
2023-01-07T23:15:41.644Z,11.05
2023-01-07T23:18:12.557Z,11.19
2023-01-07T23:20:44.405Z,11.15
2023-01-07T23:23:14.391Z,11.15
2023-01-07T23:25:48.452Z,11.01
2023-01-07T23:28:18.795Z,10.71
2023-01-07T23:30:49.286Z,10.50
2023-01-07T23:33:18.594Z,10.65
2023-01-07T23:35:47.599Z,10.71
2023-01-07T23:38:17.320Z,10.92
2023-01-07T23:40:46.963Z,10.88
2023-01-07T23:43:16.117Z,10.92
2023-01-07T23:45:47.629Z,10.69
2023-01-07T23:48:16.566Z,10.93
2023-01-07T23:50:45.905Z,10.90
2023-01-07T23:53:15.064Z,10.63
2023-01-07T23:55:55.975Z,11.00
2023-01-07T23:58:26.447Z,10.98
